LKCV

Details ICAO LKCV
Name Caslav
Region Czech Republic
Timezone Europe/Prague (UTC+2.0)
Plans Departing 11
Arriving 3
Stats Elevation 793 ft / 242 m (AMSL)
Location 49.939289° 15.381538°
Runways 2
Magnetic Variation 4.186° E
Sunrise 2018-05-25 03:02:22 UTC / 2018-05-25 05:02:22 Local
Sunset 2018-05-25 18:51:19 UTC / 2018-05-25 20:51:19 Local
Advertisement - Login to hide

Runways

ID Width Length Bearing (true) Bearing (mag) Surface Threshold Offset Overrun Length
13L 197 ft / 60 m 7,878 ft / 2,401 m 137.35° 133.16° Concrete 0 ft / 0 m 492 ft / 150 m
13R 164 ft / 50 m 5,245 ft / 1,599 m 137.47° 133.28° Grass 0 ft / 0 m 0 ft / 0 m
31L 164 ft / 50 m 5,245 ft / 1,599 m 317.48° 313.29° Grass 0 ft / 0 m 0 ft / 0 m
31R 197 ft / 60 m 7,878 ft / 2,401 m 317.37° 313.18° Concrete 0 ft / 0 m 492 ft / 150 m

Map

Weather


0- 5 10 15 20 25 30 35+ Temperature / ° C

Clouds and Precipitation
Forecast for 2018-05-25 18:00 UTC. Updated 4 hours ago

Ground ~20,000 ft ~40,000 ft Winds

METAR

LKCV 252100Z VRB02KT CAVOK 17/11 Q1020 NOSIG

TAF

TAF LKCV 251700Z 2518/2618 07005KT CAVOK PROB30 TEMPO 2518/2520 SHRA SCT040TCU BECMG 2520/2522 VRB02KT

Frequencies

Tower 118.25 MHz TWR
Approach 123.67 MHz APP
Tower 133.00 MHz TWR
Warning: Do not use this data for real-world aviation or navigation. No guarantee of current accuracy is given.